createdAt,value
2023-03-12T00:00:18.119Z,19.7
2023-03-12T00:05:19.965Z,19.7
2023-03-12T00:10:17.782Z,19.7
2023-03-12T00:15:15.698Z,19.6
2023-03-12T00:20:17.690Z,19.6
2023-03-12T00:25:14.565Z,19.6
2023-03-12T00:30:14.448Z,19.6
2023-03-12T00:35:16.358Z,19.6
2023-03-12T00:40:14.340Z,19.6
2023-03-12T00:45:18.316Z,19.6
2023-03-12T00:50:18.323Z,19.6
2023-03-12T00:55:14.300Z,19.6
2023-03-12T01:00:22.222Z,19.6
2023-03-12T01:05:24.232Z,19.6
2023-03-12T01:10:14.256Z,19.5
2023-03-12T01:15:14.233Z,19.5
2023-03-12T01:20:20.142Z,19.5
2023-03-12T01:25:14.084Z,19.5
2023-03-12T01:30:14.154Z,19.5
2023-03-12T01:35:16.034Z,19.5
2023-03-12T01:40:21.911Z,19.5
2023-03-12T01:45:19.905Z,19.5
2023-03-12T01:50:17.752Z,19.5
2023-03-12T01:55:15.895Z,19.4
2023-03-12T02:00:15.918Z,19.4
2023-03-12T02:05:13.792Z,19.4
2023-03-12T02:10:18.276Z,19.4
2023-03-12T02:15:14.210Z,19.4
2023-03-12T02:20:20.390Z,19.4
2023-03-12T02:25:16.194Z,19.4
2023-03-12T02:30:14.060Z,19.4
2023-03-12T02:35:23.960Z,19.4
2023-03-12T02:40:18.085Z,19.4
2023-03-12T02:45:16.017Z,19.3
2023-03-12T02:50:15.913Z,19.3
2023-03-12T02:55:18.053Z,19.3
2023-03-12T03:00:13.951Z,19.3
2023-03-12T03:05:15.890Z,19.3
2023-03-12T03:10:19.741Z,19.3
2023-03-12T03:15:13.655Z,19.3
2023-03-12T03:20:14.468Z,19.3
2023-03-12T03:25:18.506Z,19.3
2023-03-12T03:30:14.457Z,19.3
2023-03-12T03:35:16.410Z,19.2
2023-03-12T03:40:18.250Z,19.2
2023-03-12T03:45:16.134Z,19.2
2023-03-12T03:50:14.181Z,19.2
2023-03-12T03:55:14.145Z,19.2
2023-03-12T04:00:17.803Z,19.2
2023-03-12T04:05:13.802Z,19.2
2023-03-12T04:10:16.070Z,19.2
2023-03-12T04:15:16.076Z,19.2
2023-03-12T04:20:16.052Z,19.1
2023-03-12T04:25:13.962Z,19.2
2023-03-12T04:30:13.967Z,19.2
2023-03-12T04:35:13.930Z,19.1
2023-03-12T04:40:21.852Z,19.2
2023-03-12T04:45:17.743Z,19.2
2023-03-12T04:50:25.620Z,19.1
2023-03-12T04:55:24.399Z,19.2
2023-03-12T05:00:20.247Z,19.1
2023-03-12T05:05:14.170Z,19.1
2023-03-12T05:10:22.091Z,19.1
2023-03-12T05:15:16.343Z,19.1
2023-03-12T05:20:16.167Z,19.1
2023-03-12T05:25:18.135Z,19.1
2023-03-12T05:30:20.007Z,19.1
2023-03-12T05:35:13.822Z,19.1
2023-03-12T05:40:17.694Z,19.1
2023-03-12T05:45:16.619Z,19.1
2023-03-12T05:50:20.565Z,19.1
2023-03-12T05:55:20.412Z,19.1
2023-03-12T06:00:18.520Z,19.2
2023-03-12T06:05:17.650Z,19.2
2023-03-12T06:10:14.553Z,19.1
2023-03-12T06:15:18.499Z,19.1
2023-03-12T06:20:14.518Z,19.1
2023-03-12T06:25:20.385Z,19.1
2023-03-12T06:30:20.186Z,19.1
2023-03-12T06:35:17.994Z,19.1
2023-03-12T06:40:15.921Z,19.1
2023-03-12T06:45:17.864Z,19.1
2023-03-12T06:50:13.653Z,19.1
2023-03-12T06:55:16.620Z,19.1
2023-03-12T07:00:16.661Z,19.1
2023-03-12T07:05:14.625Z,19.1
2023-03-12T07:10:13.564Z,19.1
2023-03-12T07:15:16.757Z,19.1
2023-03-12T07:20:27.608Z,19.1
2023-03-12T07:25:19.094Z,19.1
2023-03-12T07:30:18.054Z,19.1
2023-03-12T07:35:16.038Z,19.2
2023-03-12T07:40:18.182Z,19.2
2023-03-12T07:45:18.446Z,19.2
2023-03-12T07:50:16.864Z,19.2
2023-03-12T07:55:18.393Z,19.2
2023-03-12T08:00:20.866Z,19.3
2023-03-12T08:05:24.280Z,19.4
2023-03-12T08:10:20.486Z,19.5
2023-03-12T08:15:16.521Z,19.6
2023-03-12T08:20:18.449Z,19.6
2023-03-12T08:25:20.317Z,19.8
2023-03-12T08:30:14.539Z,19.8
2023-03-12T08:35:16.385Z,19.9
2023-03-12T08:40:18.330Z,19.9
2023-03-12T08:45:16.205Z,19.9
2023-03-12T08:50:21.126Z,20
2023-03-12T08:55:15.988Z,20.1
2023-03-12T09:00:18.039Z,20.1
2023-03-12T09:05:18.160Z,20.1
2023-03-12T09:10:15.982Z,20.2
2023-03-12T09:15:18.726Z,20.2
2023-03-12T09:20:13.736Z,20.2
2023-03-12T09:25:15.609Z,20.2
2023-03-12T09:30:14.579Z,20.2
2023-03-12T09:35:16.330Z,20.2
2023-03-12T09:40:22.473Z,20.2
2023-03-12T09:45:18.697Z,20.2
2023-03-12T09:50:21.656Z,20.3
2023-03-12T09:55:14.491Z,20.4
2023-03-12T10:00:24.399Z,20.4
2023-03-12T10:05:22.404Z,20.5
2023-03-12T10:10:23.920Z,20.5
2023-03-12T10:15:17.893Z,20.6
2023-03-12T10:20:17.855Z,20.6
2023-03-12T10:25:17.746Z,20.6
2023-03-12T10:30:15.627Z,20.6
2023-03-12T10:35:16.565Z,20.7
2023-03-12T10:40:14.535Z,20.7
2023-03-12T10:45:26.506Z,20.7
2023-03-12T10:50:20.518Z,20.7
2023-03-12T10:55:18.427Z,20.7
2023-03-12T11:00:18.307Z,20.6
2023-03-12T11:05:16.144Z,20.6
2023-03-12T11:10:24.134Z,20.6
2023-03-12T11:15:15.673Z,20.6
2023-03-12T11:20:21.788Z,20.6
2023-03-12T11:25:19.902Z,20.6
2023-03-12T11:30:13.877Z,20.6
2023-03-12T11:35:19.769Z,20.6
2023-03-12T11:40:14.061Z,20.6
2023-03-12T11:45:15.997Z,20.6
2023-03-12T11:50:26.088Z,20.6
2023-03-12T11:55:20.072Z,20.6
2023-03-12T12:00:14.064Z,20.6
2023-03-12T12:05:13.778Z,20.6
2023-03-12T12:10:25.686Z,20.6
2023-03-12T12:15:21.631Z,20.6
2023-03-12T12:20:16.712Z,20.5
2023-03-12T12:25:13.644Z,20.5
2023-03-12T12:30:17.898Z,20.5
2023-03-12T12:35:15.945Z,20.5
2023-03-12T12:40:15.822Z,20.5
2023-03-12T12:45:15.792Z,20.5
2023-03-12T12:50:15.848Z,20.5
2023-03-12T12:55:13.568Z,20.5
2023-03-12T13:00:18.517Z,20.5
2023-03-12T13:05:14.534Z,20.5
2023-03-12T13:10:22.440Z,20.5
2023-03-12T13:15:16.339Z,20.5
2023-03-12T13:20:28.266Z,20.5
2023-03-12T13:25:18.203Z,20.5
2023-03-12T13:30:20.253Z,20.5
2023-03-12T13:35:14.713Z,20.5
2023-03-12T13:40:22.634Z,20.5
2023-03-12T13:45:14.474Z,20.5
2023-03-12T13:50:14.305Z,20.5
2023-03-12T13:55:16.512Z,20.5
2023-03-12T14:00:16.321Z,20.5
2023-03-12T14:05:20.246Z,20.5
2023-03-12T14:10:16.182Z,20.5
2023-03-12T14:15:14.062Z,20.5
2023-03-12T14:20:15.934Z,20.5
2023-03-12T14:25:13.698Z,20.6
2023-03-12T14:30:20.608Z,20.6
2023-03-12T14:35:22.570Z,20.6
2023-03-12T14:40:24.486Z,20.6
2023-03-12T14:45:14.354Z,20.6
2023-03-12T14:50:16.377Z,20.6
2023-03-12T14:55:18.278Z,20.6
2023-03-12T15:00:16.237Z,20.6
2023-03-12T15:05:16.413Z,20.6
2023-03-12T15:10:18.346Z,20.6
2023-03-12T15:15:18.334Z,20.6
2023-03-12T15:20:14.360Z,20.6
2023-03-12T15:25:18.226Z,20.6
2023-03-12T15:30:18.133Z,20.7
2023-03-12T15:35:16.405Z,20.6
2023-03-12T15:40:22.509Z,20.6
2023-03-12T15:45:30.488Z,20.6
2023-03-12T15:50:19.732Z,20.6
2023-03-12T15:55:16.531Z,20.6
2023-03-12T16:00:22.534Z,20.6
2023-03-12T16:05:22.405Z,20.6
2023-03-12T16:10:22.419Z,20.6
2023-03-12T16:15:16.442Z,20.6
2023-03-12T16:20:14.302Z,20.6
2023-03-12T16:25:16.134Z,20.6
2023-03-12T16:30:30.205Z,20.6
2023-03-12T16:35:18.205Z,20.6
2023-03-12T16:40:21.187Z,20.6
2023-03-12T16:45:21.807Z,20.6
2023-03-12T16:50:15.426Z,20.6
2023-03-12T16:55:18.670Z,20.6
2023-03-12T17:00:16.508Z,20.6
2023-03-12T17:05:13.584Z,20.5
2023-03-12T17:10:18.632Z,20.5
2023-03-12T17:15:14.512Z,20.5
2023-03-12T17:20:14.392Z,20.5
2023-03-12T17:25:16.211Z,20.5
2023-03-12T17:30:18.158Z,20.6
2023-03-12T17:35:20.052Z,20.5
2023-03-12T17:40:23.917Z,20.5
2023-03-12T17:45:15.824Z,20.5
2023-03-12T17:50:15.669Z,20.6
2023-03-12T17:55:24.674Z,20.6
2023-03-12T18:00:27.661Z,20.7
2023-03-12T18:05:14.671Z,20.7
2023-03-12T18:10:19.731Z,20.8
2023-03-12T18:15:20.727Z,20.8
2023-03-12T18:20:13.620Z,20.8
2023-03-12T18:25:19.019Z,20.9
2023-03-12T18:30:15.972Z,20.9
2023-03-12T18:35:17.908Z,20.9
2023-03-12T18:40:18.085Z,20.9
2023-03-12T18:45:22.071Z,20.9
2023-03-12T18:50:16.513Z,20.9
2023-03-12T18:55:18.707Z,20.8
2023-03-12T19:00:18.609Z,20.8
2023-03-12T19:05:20.171Z,20.7
2023-03-12T19:10:18.075Z,20.7
2023-03-12T19:15:16.153Z,20.7
2023-03-12T19:20:24.010Z,20.6
2023-03-12T19:25:13.887Z,20.7
2023-03-12T19:30:22.047Z,20.7
2023-03-12T19:35:14.120Z,20.8
2023-03-12T19:40:22.014Z,20.7
2023-03-12T19:45:17.902Z,20.8
2023-03-12T19:50:15.717Z,20.8
2023-03-12T19:55:25.201Z,20.8
2023-03-12T20:00:18.051Z,20.8
2023-03-12T20:05:13.887Z,20.8
2023-03-12T20:10:13.670Z,20.8
2023-03-12T20:15:22.590Z,20.8
2023-03-12T20:20:14.650Z,20.8
2023-03-12T20:25:22.500Z,20.8
2023-03-12T20:30:14.349Z,20.8
2023-03-12T20:35:14.177Z,20.8
2023-03-12T20:40:20.351Z,20.8
2023-03-12T20:45:14.323Z,20.8
2023-03-12T20:50:14.383Z,20.8
2023-03-12T20:55:16.176Z,20.7
2023-03-12T21:00:20.120Z,20.7
2023-03-12T21:05:16.046Z,20.7
2023-03-12T21:10:19.863Z,20.7
2023-03-12T21:15:15.989Z,20.7
2023-03-12T21:20:24.150Z,20.7
2023-03-12T21:25:13.962Z,20.7
2023-03-12T21:30:19.990Z,20.7
2023-03-12T21:35:16.082Z,20.7
2023-03-12T21:40:20.063Z,20.6
2023-03-12T21:45:19.956Z,20.6
2023-03-12T21:50:13.760Z,20.6
2023-03-12T21:55:13.930Z,20.5
2023-03-12T22:00:20.124Z,20.5
2023-03-12T22:05:13.982Z,20.5
2023-03-12T22:10:19.838Z,20.5
2023-03-12T22:15:15.943Z,20.4
2023-03-12T22:20:17.894Z,20.4
2023-03-12T22:25:13.826Z,20.4
2023-03-12T22:30:17.823Z,20.4
2023-03-12T22:35:17.823Z,20.3
2023-03-12T22:40:15.616Z,20.3
2023-03-12T22:45:16.450Z,20.3
2023-03-12T22:50:16.315Z,20.3
2023-03-12T22:55:24.366Z,20.3
2023-03-12T23:00:22.193Z,20.3
2023-03-12T23:05:16.660Z,20.3
2023-03-12T23:10:13.718Z,20.3
2023-03-12T23:15:16.593Z,20.3
2023-03-12T23:20:14.559Z,20.2
2023-03-12T23:25:16.381Z,20.2
2023-03-12T23:30:16.245Z,20.2
2023-03-12T23:35:14.143Z,20.2
2023-03-12T23:40:14.199Z,20.2
2023-03-12T23:45:14.178Z,20.2
2023-03-12T23:50:17.990Z,20.2
2023-03-12T23:55:17.897Z,20.2
